Terminal Aerodrome Forecast
Issued by NWS Indianapolis, IN

Home | Current Version | Previous Version | Text Only | Print | Product List | Glossary On
Versions: 1 2 3 4 5 6 7 8 9 10 11 12 13 14 15 16 17 18 19 20 21 22 23 24 25 26
767
FTUS43 KIND 010520
TAFIND
TAF
KIND 010520Z 0106/0212 18005KT P6SM VCSH FEW010 BKN090 BKN240
     FM010900 00000KT 5SM BR VCSH SCT010 OVC050
     FM011200 VRB03KT 5SM -SHRA BR SCT010 OVC020
     FM011500 17004KT P6SM SHRA OVC025
     FM011600 18004KT P6SM SHRA OVC035
     FM020000 22004KT P6SM BKN050
     FM020700 VRB03KT P6SM BKN030
     FM020900 VRB03KT 5SM BR BKN003=

USA.gov is the U.S. government's official web portal to all federal, state and local government web resources and services.